Time,TemperatureF,DewpointF,PressureIn,WindDirection,WindDirectionDegrees,WindSpeedMPH,WindSpeedGustMPH,Humidity,HourlyPrecipIn,Conditions,Clouds,dailyrainin,SoftwareType,DateUTC
2013-04-16 00:02:00,59.0,19.0,29.72,SW,224,7.0,8.0,21,0.00,,,0.00,,2013-04-16 06:02:00,
2013-04-16 00:12:00,59.0,19.0,29.72,SW,224,7.0,8.0,21,0.00,,,0.00,,2013-04-16 06:12:00,
2013-04-16 00:22:00,59.0,19.0,29.72,SW,225,6.0,9.0,21,0.00,,,0.00,,2013-04-16 06:22:00,
2013-04-16 00:32:00,59.0,19.0,29.73,SW,232,5.0,9.0,21,0.00,,,0.00,,2013-04-16 06:32:00,
2013-04-16 00:42:00,59.0,19.0,29.73,SW,232,5.0,9.0,21,0.00,,,0.00,,2013-04-16 06:42:00,
2013-04-16 00:52:00,57.0,17.0,29.73,WSW,241,5.0,7.0,21,0.00,,,0.00,,2013-04-16 06:52:00,
2013-04-16 01:02:00,56.0,17.0,29.73,SW,222,5.0,6.0,21,0.00,,,0.00,,2013-04-16 07:02:00,
2013-04-16 01:12:00,56.0,17.0,29.73,SW,222,5.0,6.0,21,0.00,,,0.00,,2013-04-16 07:12:00,
2013-04-16 01:22:00,55.0,17.0,29.73,WSW,248,5.0,6.0,22,0.00,,,0.00,,2013-04-16 07:22:00,
2013-04-16 01:32:00,56.0,17.0,29.73,SW,229,3.0,7.0,21,0.00,,,0.00,,2013-04-16 07:32:00,
2013-04-16 01:42:00,56.0,17.0,29.73,SW,229,3.0,7.0,21,0.00,,,0.00,,2013-04-16 07:42:00,
2013-04-16 01:53:00,55.0,17.0,29.73,WSW,241,5.0,7.0,22,0.00,,,0.00,,2013-04-16 07:53:00,
2013-04-16 02:02:00,54.0,16.0,29.73,WSW,248,5.0,7.0,22,0.00,,,0.00,,2013-04-16 08:02:00,
2013-04-16 02:12:00,54.0,16.0,29.73,WSW,248,5.0,7.0,22,0.00,,,0.00,,2013-04-16 08:12:00,
2013-04-16 02:22:00,52.0,15.0,29.73,WSW,243,3.0,5.0,23,0.00,,,0.00,,2013-04-16 08:22:00,
2013-04-16 02:32:00,52.0,16.0,29.73,WSW,245,4.0,6.0,24,0.00,,,0.00,,2013-04-16 08:32:00,
2013-04-16 02:42:00,52.0,16.0,29.73,WSW,245,4.0,6.0,24,0.00,,,0.00,,2013-04-16 08:42:00,
2013-04-16 02:52:00,54.0,18.0,29.73,SW,215,5.0,6.0,24,0.00,,,0.00,,2013-04-16 08:52:00,
2013-04-16 03:02:00,54.0,19.0,29.73,SW,234,5.0,8.0,25,0.00,,,0.00,,2013-04-16 09:02:00,
2013-04-16 03:12:00,54.0,19.0,29.73,SW,234,5.0,8.0,25,0.00,,,0.00,,2013-04-16 09:12:00,
2013-04-16 03:22:00,54.0,19.0,29.73,SW,225,5.0,8.0,25,0.00,,,0.00,,2013-04-16 09:22:00,
2013-04-16 03:33:00,54.0,19.0,29.73,SSW,204,5.0,7.0,25,0.00,,,0.00,,2013-04-16 09:33:00,
2013-04-16 03:42:00,54.0,19.0,29.73,SSW,204,5.0,7.0,25,0.00,,,0.00,,2013-04-16 09:42:00,
2013-04-16 03:53:00,54.0,21.0,29.73,SW,220,5.0,7.0,27,0.00,,,0.00,,2013-04-16 09:53:00,
2013-04-16 04:03:00,54.0,21.0,29.73,SW,214,3.0,8.0,27,0.00,,,0.00,,2013-04-16 10:03:00,
2013-04-16 04:13:00,54.0,21.0,29.73,SW,214,3.0,8.0,27,0.00,,,0.00,,2013-04-16 10:13:00,
2013-04-16 04:23:00,53.0,22.0,29.73,SW,223,3.0,6.0,29,0.00,,,0.00,,2013-04-16 10:23:00,
2013-04-16 04:33:00,53.0,21.0,29.73,South,189,3.0,6.0,28,0.00,,,0.00,,2013-04-16 10:33:00,
2013-04-16 04:42:00,53.0,21.0,29.73,South,189,3.0,6.0,28,0.00,,,0.00,,2013-04-16 10:42:00,
2013-04-16 04:53:00,53.0,22.0,29.74,South,175,4.0,8.0,29,0.00,,,0.00,,2013-04-16 10:53:00,
2013-04-16 05:02:00,53.0,22.0,29.74,SW,225,5.0,8.0,30,0.00,,,0.00,,2013-04-16 11:02:00,
2013-04-16 05:12:00,53.0,22.0,29.74,SW,225,5.0,8.0,30,0.00,,,0.00,,2013-04-16 11:12:00,
2013-04-16 05:22:00,53.0,22.0,29.74,SSW,194,4.0,6.0,29,0.00,,,0.00,,2013-04-16 11:22:00,
2013-04-16 05:32:00,53.0,22.0,29.74,SSW,210,5.0,7.0,30,0.00,,,0.00,,2013-04-16 11:32:00,
2013-04-16 05:42:00,53.0,22.0,29.74,SSW,210,5.0,7.0,30,0.00,,,0.00,,2013-04-16 11:42:00,
2013-04-16 05:53:00,53.0,22.0,29.74,SW,217,6.0,9.0,30,0.00,,,0.00,,2013-04-16 11:53:00,
2013-04-16 06:02:00,53.0,22.0,29.73,South,183,6.0,9.0,30,0.00,,,0.00,,2013-04-16 12:02:00,
2013-04-16 06:12:00,53.0,22.0,29.73,South,183,6.0,9.0,30,0.00,,,0.00,,2013-04-16 12:12:00,
2013-04-16 06:22:00,52.0,22.0,29.74,South,191,6.0,9.0,31,0.00,,,0.00,,2013-04-16 12:22:00,
2013-04-16 06:32:00,53.0,23.0,29.74,SSW,203,6.0,10.0,31,0.00,,,0.00,,2013-04-16 12:32:00,
2013-04-16 06:42:00,53.0,23.0,29.74,SSW,203,6.0,10.0,31,0.00,,,0.00,,2013-04-16 12:42:00,
2013-04-16 06:52:00,52.0,22.0,29.74,SSW,206,5.0,7.0,31,0.00,,,0.00,,2013-04-16 12:52:00,
2013-04-16 07:02:00,52.0,22.0,29.75,SSE,165,6.0,8.0,31,0.00,,,0.00,,2013-04-16 13:02:00,
2013-04-16 07:12:00,52.0,22.0,29.75,SSE,165,6.0,8.0,31,0.00,,,0.00,,2013-04-16 13:12:00,
2013-04-16 07:22:00,55.0,23.0,29.76,SW,216,3.0,7.0,28,0.00,,,0.00,,2013-04-16 13:22:00,
2013-04-16 07:32:00,57.0,22.0,29.76,SSW,199,5.0,9.0,26,0.00,,,0.00,,2013-04-16 13:32:00,
2013-04-16 07:42:00,57.0,22.0,29.76,SSW,199,5.0,9.0,26,0.00,,,0.00,,2013-04-16 13:42:00,
2013-04-16 07:52:00,61.0,23.0,29.76,SSE,165,5.0,8.0,23,0.00,,,0.00,,2013-04-16 13:52:00,
2013-04-16 08:02:00,62.0,24.0,29.76,South,179,7.0,10.0,23,0.00,,,0.00,,2013-04-16 14:02:00,
2013-04-16 08:12:00,62.0,24.0,29.76,South,179,7.0,10.0,23,0.00,,,0.00,,2013-04-16 14:12:00,
2013-04-16 08:22:00,64.0,25.0,29.77,SSE,162,8.0,14.0,23,0.00,,,0.00,,2013-04-16 14:22:00,
2013-04-16 08:32:00,65.0,25.0,29.77,SSE,156,7.0,13.0,22,0.00,,,0.00,,2013-04-16 14:32:00,
2013-04-16 08:42:00,65.0,25.0,29.77,SSE,156,7.0,13.0,22,0.00,,,0.00,,2013-04-16 14:42:00,
2013-04-16 08:52:00,66.0,26.0,29.77,SSE,168,10.0,13.0,22,0.00,,,0.00,,2013-04-16 14:52:00,
2013-04-16 09:02:00,66.0,26.0,29.76,South,175,6.0,15.0,22,0.00,,,0.00,,2013-04-16 15:02:00,
2013-04-16 09:12:00,66.0,26.0,29.76,South,175,6.0,15.0,22,0.00,,,0.00,,2013-04-16 15:12:00,
2013-04-16 09:22:00,65.0,26.0,29.76,SW,229,9.0,15.0,23,0.00,,,0.00,,2013-04-16 15:22:00,
2013-04-16 09:33:00,65.0,26.0,29.76,SSE,162,9.0,14.0,23,0.00,,,0.00,,2013-04-16 15:33:00,
2013-04-16 09:43:00,65.0,26.0,29.76,SSE,162,9.0,14.0,23,0.00,,,0.00,,2013-04-16 15:43:00,
2013-04-16 09:53:00,67.0,27.0,29.75,South,184,7.0,14.0,22,0.00,,,0.00,,2013-04-16 15:53:00,
2013-04-16 10:03:00,68.0,28.0,29.75,SSE,168,10.0,12.0,22,0.00,,,0.00,,2013-04-16 16:03:00,
2013-04-16 10:13:00,68.0,28.0,29.75,SSE,168,10.0,12.0,22,0.00,,,0.00,,2013-04-16 16:13:00,
2013-04-16 10:23:00,69.0,27.0,29.75,SSW,204,9.0,20.0,21,0.00,,,0.00,,2013-04-16 16:23:00,
2013-04-16 10:32:00,70.0,27.0,29.75,SW,231,13.0,21.0,20,0.00,,,0.00,,2013-04-16 16:32:00,
2013-04-16 10:42:00,70.0,27.0,29.75,SW,231,13.0,21.0,20,0.00,,,0.00,,2013-04-16 16:42:00,
2013-04-16 10:53:00,71.0,27.0,29.75,SSW,192,8.0,15.0,19,0.00,,,0.00,,2013-04-16 16:53:00,
2013-04-16 11:02:00,72.0,27.0,29.74,SSE,160,7.0,15.0,19,0.00,,,0.00,,2013-04-16 17:02:00,
2013-04-16 11:12:00,72.0,27.0,29.74,SSE,160,7.0,15.0,19,0.00,,,0.00,,2013-04-16 17:12:00,
2013-04-16 11:22:00,72.0,26.0,29.74,SSE,160,10.0,17.0,18,0.00,,,0.00,,2013-04-16 17:22:00,
2013-04-16 11:32:00,72.0,26.0,29.73,South,190,10.0,17.0,18,0.00,,,0.00,,2013-04-16 17:32:00,
2013-04-16 11:43:00,72.0,26.0,29.73,South,190,10.0,17.0,18,0.00,,,0.00,,2013-04-16 17:43:00,
2013-04-16 11:53:00,74.0,26.0,29.73,SW,228,8.0,20.0,17,0.00,,,0.00,,2013-04-16 17:53:00,
2013-04-16 12:02:00,75.0,26.0,29.73,South,190,7.0,18.0,16,0.00,,,0.00,,2013-04-16 18:02:00,
2013-04-16 12:12:00,75.0,26.0,29.73,South,190,7.0,18.0,16,0.00,,,0.00,,2013-04-16 18:12:00,
2013-04-16 12:22:00,76.0,25.0,29.72,South,190,8.0,17.0,15,0.00,,,0.00,,2013-04-16 18:22:00,
2013-04-16 12:32:00,77.0,27.0,29.71,SW,223,7.0,21.0,16,0.00,,,0.00,,2013-04-16 18:32:00,
2013-04-16 12:42:00,77.0,27.0,29.71,SW,223,7.0,21.0,16,0.00,,,0.00,,2013-04-16 18:42:00,
2013-04-16 12:52:00,77.0,24.0,29.70,SW,224,13.0,22.0,14,0.00,,,0.00,,2013-04-16 18:52:00,
2013-04-16 13:02:00,78.0,23.0,29.70,SSW,211,9.0,21.0,13,0.00,,,0.00,,2013-04-16 19:02:00,
2013-04-16 13:12:00,78.0,23.0,29.70,SSW,211,9.0,21.0,13,0.00,,,0.00,,2013-04-16 19:12:00,
2013-04-16 13:22:00,79.0,22.0,29.69,SW,232,16.0,20.0,12,0.00,,,0.00,,2013-04-16 19:22:00,
2013-04-16 13:32:00,80.0,21.0,29.68,SSW,198,10.0,18.0,11,0.00,,,0.00,,2013-04-16 19:32:00,
2013-04-16 13:42:00,80.0,21.0,29.68,SSW,198,10.0,18.0,11,0.00,,,0.00,,2013-04-16 19:42:00,
2013-04-16 13:52:00,80.0,23.0,29.68,SW,226,13.0,18.0,12,0.00,,,0.00,,2013-04-16 19:52:00,
2013-04-16 14:02:00,80.0,19.0,29.67,SW,234,14.0,17.0,10,0.00,,,0.00,,2013-04-16 20:02:00,
2013-04-16 14:12:00,80.0,19.0,29.67,SW,234,14.0,17.0,10,0.00,,,0.00,,2013-04-16 20:12:00,
2013-04-16 14:22:00,81.0,19.0,29.66,SW,220,10.0,18.0,10,0.00,,,0.00,,2013-04-16 20:22:00,
2013-04-16 14:32:00,82.0,15.0,29.65,SSW,208,10.0,17.0,8,0.00,,,0.00,,2013-04-16 20:32:00,
2013-04-16 14:42:00,82.0,15.0,29.65,SSW,208,10.0,17.0,8,0.00,,,0.00,,2013-04-16 20:42:00,
2013-04-16 14:52:00,82.0,12.0,29.65,SW,219,13.0,18.0,7,0.00,,,0.00,,2013-04-16 20:52:00,
2013-04-16 15:02:00,82.0,12.0,29.64,SSW,207,12.0,25.0,7,0.00,,,0.00,,2013-04-16 21:02:00,
2013-04-16 15:12:00,82.0,12.0,29.64,SSW,207,12.0,25.0,7,0.00,,,0.00,,2013-04-16 21:12:00,
2013-04-16 15:22:00,82.0,8.0,29.63,WSW,248,11.0,17.0,6,0.00,,,0.00,,2013-04-16 21:22:00,
2013-04-16 15:32:00,82.0,15.0,29.64,SSW,206,7.0,22.0,8,0.00,,,0.00,,2013-04-16 21:32:00,
2013-04-16 15:43:00,82.0,15.0,29.64,SSW,206,7.0,22.0,8,0.00,,,0.00,,2013-04-16 21:43:00,
2013-04-16 15:53:00,82.0,12.0,29.63,SW,222,18.0,24.0,7,0.00,,,0.00,,2013-04-16 21:53:00,
2013-04-16 16:02:00,82.0,12.0,29.63,WSW,240,24.0,28.0,7,0.00,,,0.00,,2013-04-16 22:02:00,
2013-04-16 16:13:00,82.0,12.0,29.63,WSW,240,24.0,28.0,7,0.00,,,0.00,,2013-04-16 22:13:00,
2013-04-16 16:22:00,81.0,11.0,29.62,SW,234,17.0,26.0,7,0.00,,,0.00,,2013-04-16 22:22:00,
2013-04-16 16:33:00,81.0,11.0,29.63,WSW,237,17.0,28.0,7,0.01,,,0.01,,2013-04-16 22:33:00,
2013-04-16 16:42:00,81.0,11.0,29.63,WSW,237,17.0,28.0,7,0.01,,,0.01,,2013-04-16 22:42:00,
2013-04-16 16:52:00,80.0,10.0,29.63,WSW,238,20.0,28.0,7,0.01,,,0.01,,2013-04-16 22:52:00,
2013-04-16 17:02:00,80.0,13.0,29.62,WSW,248,20.0,23.0,8,0.01,,,0.01,,2013-04-16 23:02:00,
2013-04-16 17:12:00,80.0,13.0,29.62,WSW,248,20.0,23.0,8,0.01,,,0.01,,2013-04-16 23:12:00,
2013-04-16 17:22:00,80.0,13.0,29.63,WSW,240,18.0,25.0,8,0.03,,,0.03,,2013-04-16 23:22:00,
2013-04-16 17:32:00,79.0,13.0,29.63,WSW,244,12.0,20.0,8,0.02,,,0.03,,2013-04-16 23:32:00,
2013-04-16 17:42:00,79.0,13.0,29.63,WSW,244,12.0,20.0,8,0.02,,,0.03,,2013-04-16 23:42:00,
2013-04-16 17:52:00,78.0,12.0,29.63,South,177,13.0,22.0,8,0.02,,,0.03,,2013-04-16 23:52:00,
2013-04-16 18:02:00,78.0,17.0,29.63,WSW,243,10.0,18.0,10,0.02,,,0.03,,2013-04-17 00:02:00,
2013-04-16 18:12:00,78.0,17.0,29.63,WSW,243,10.0,18.0,10,0.02,,,0.03,,2013-04-17 00:12:00,
2013-04-16 18:22:00,77.0,16.0,29.63,WSW,240,13.0,22.0,10,0.00,,,0.03,,2013-04-17 00:22:00,
2013-04-16 18:32:00,77.0,16.0,29.63,SW,225,16.0,20.0,10,0.00,,,0.03,,2013-04-17 00:32:00,
2013-04-16 18:42:00,77.0,16.0,29.63,SW,225,16.0,20.0,10,0.00,,,0.03,,2013-04-17 00:42:00,
2013-04-16 18:52:00,76.0,16.0,29.63,SW,219,10.0,17.0,10,0.00,,,0.03,,2013-04-17 00:52:00,
2013-04-16 19:02:00,76.0,16.0,29.64,WSW,237,14.0,21.0,10,0.00,,,0.03,,2013-04-17 01:02:00,
2013-04-16 19:12:00,76.0,16.0,29.64,WSW,237,14.0,21.0,10,0.00,,,0.03,,2013-04-17 01:12:00,
2013-04-16 19:22:00,74.0,14.0,29.64,SW,228,15.0,21.0,10,0.00,,,0.03,,2013-04-17 01:22:00,
2013-04-16 19:32:00,74.0,14.0,29.65,WSW,244,13.0,21.0,10,0.00,,,0.03,,2013-04-17 01:32:00,
2013-04-16 19:42:00,74.0,14.0,29.65,WSW,244,13.0,21.0,10,0.00,,,0.03,,2013-04-17 01:42:00,
2013-04-16 19:52:00,72.0,12.0,29.65,WSW,242,13.0,18.0,10,0.00,,,0.03,,2013-04-17 01:52:00,
2013-04-16 20:02:00,72.0,12.0,29.65,SW,219,7.0,18.0,10,0.00,,,0.03,,2013-04-17 02:02:00,
2013-04-16 20:12:00,72.0,12.0,29.65,SW,219,7.0,18.0,10,0.00,,,0.03,,2013-04-17 02:12:00,
2013-04-16 20:22:00,70.0,13.0,29.66,WSW,243,7.0,12.0,11,0.00,,,0.03,,2013-04-17 02:22:00,
2013-04-16 20:32:00,69.0,12.0,29.67,SSW,202,7.0,12.0,11,0.00,,,0.03,,2013-04-17 02:32:00,
2013-04-16 20:42:00,69.0,12.0,29.67,SSW,202,7.0,12.0,11,0.00,,,0.03,,2013-04-17 02:42:00,
2013-04-16 20:52:00,68.0,12.0,29.67,SW,218,6.0,12.0,11,0.00,,,0.03,,2013-04-17 02:52:00,
2013-04-16 21:02:00,67.0,11.0,29.68,SW,236,6.0,10.0,11,0.00,,,0.03,,2013-04-17 03:02:00,
2013-04-16 21:12:00,67.0,11.0,29.68,SW,236,6.0,10.0,11,0.00,,,0.03,,2013-04-17 03:12:00,
2013-04-16 21:22:00,66.0,10.0,29.69,SW,225,4.0,7.0,11,0.00,,,0.03,,2013-04-17 03:22:00,
2013-04-16 21:32:00,65.0,9.0,29.69,SW,225,5.0,8.0,11,0.00,,,0.03,,2013-04-17 03:32:00,
2013-04-16 21:42:00,65.0,9.0,29.69,SW,225,5.0,8.0,11,0.00,,,0.03,,2013-04-17 03:42:00,
2013-04-16 21:53:00,64.0,8.0,29.70,WSW,253,7.0,9.0,11,0.00,,,0.03,,2013-04-17 03:53:00,
2013-04-16 22:03:00,63.0,8.0,29.70,SW,233,8.0,10.0,11,0.00,,,0.03,,2013-04-17 04:03:00,
2013-04-16 22:13:00,63.0,8.0,29.70,SW,233,8.0,10.0,11,0.00,,,0.03,,2013-04-17 04:13:00,
2013-04-16 22:22:00,62.0,7.0,29.70,SW,229,6.0,9.0,11,0.00,,,0.03,,2013-04-17 04:22:00,
2013-04-16 22:33:00,62.0,7.0,29.70,WSW,238,5.0,9.0,11,0.00,,,0.03,,2013-04-17 04:33:00,
2013-04-16 22:42:00,62.0,7.0,29.70,WSW,238,5.0,9.0,11,0.00,,,0.03,,2013-04-17 04:42:00,
2013-04-16 22:52:00,59.0,6.0,29.71,West,270,3.0,5.0,12,0.00,,,0.03,,2013-04-17 04:52:00,
2013-04-16 23:02:00,57.0,5.0,29.71,WSW,246,2.0,3.0,12,0.00,,,0.03,,2013-04-17 05:02:00,
2013-04-16 23:12:00,57.0,5.0,29.71,WSW,246,2.0,3.0,12,0.00,,,0.03,,2013-04-17 05:12:00,
2013-04-16 23:22:00,55.0,5.0,29.71,West,270,3.0,5.0,13,0.00,,,0.03,,2013-04-17 05:22:00,
2013-04-16 23:32:00,54.0,3.0,29.70,West,263,3.0,5.0,12,0.00,,,0.03,,2013-04-17 05:32:00,
2013-04-16 23:42:00,54.0,3.0,29.70,West,263,3.0,5.0,12,0.00,,,0.03,,2013-04-17 05:42:00,
2013-04-16 23:52:00,53.0,5.0,29.71,WSW,248,3.0,5.0,14,0.00,,,0.03,,2013-04-17 05:52:00,